Time;durP1;ratioP1;P1;durP2;ratioP2;P2;SDS_P1;SDS_P2;PMS_P1;PMS_P2;Temp;Humidity;BMP_temperature;BMP_pressure;BME280_temperature;BME280_humidity;BME280_pressure;Samples;Min_cycle;Max_cycle;Signal;HPM_P1;HPM_P2
2024/02/07 00:02:21;;;;;;;0.10;0.10;;;;;;;7.13;80.58;100189.00;7369142;19;20006;-64
2024/02/07 00:04:47;;;;;;;0.05;0.05;;;;;;;7.15;80.94;100202.81;7366632;19;20017;-65
2024/02/07 00:07:12;;;;;;;0.10;0.10;;;;;;;7.16;80.71;100201.94;7369468;19;20017;-64
2024/02/07 00:09:38;;;;;;;0.10;0.10;;;;;;;7.02;80.60;100190.03;7369665;19;19998;-64
2024/02/07 00:12:03;;;;;;;0.10;0.10;;;;;;;7.03;80.75;100186.53;7368694;19;20009;-64
2024/02/07 00:14:29;;;;;;;0.00;0.00;;;;;;;7.01;80.83;100177.09;7366467;19;19998;-64
2024/02/07 00:16:56;;;;;;;0.00;0.00;;;;;;;6.98;80.43;100183.16;7367098;19;21913;-64
2024/02/07 00:19:22;;;;;;;0.00;0.00;;;;;;;7.13;80.77;100227.94;7372899;19;20029;-64
2024/02/07 00:21:47;;;;;;;0.10;0.10;;;;;;;7.06;80.53;100221.13;7367068;19;20015;-65
2024/02/07 00:24:13;;;;;;;0.10;0.10;;;;;;;7.05;80.37;100224.63;7366589;19;19999;-64
2024/02/07 00:26:38;;;;;;;0.08;0.08;;;;;;;7.10;80.65;100233.19;7366878;19;20018;-64
2024/02/07 00:29:04;;;;;;;0.10;0.10;;;;;;;6.96;80.89;100205.72;7368581;19;20058;-64
2024/02/07 00:31:29;;;;;;;0.10;0.10;;;;;;;7.10;80.57;100228.00;7365206;19;20028;-64
2024/02/07 00:33:55;;;;;;;0.10;0.10;;;;;;;7.01;80.47;100216.03;7366223;19;20868;-64
2024/02/07 00:36:20;;;;;;;0.10;0.10;;;;;;;7.06;80.80;100231.53;7367468;19;20013;-64
2024/02/07 00:38:46;;;;;;;0.00;0.00;;;;;;;6.94;80.63;100210.03;7375400;19;20014;-64
2024/02/07 00:41:22;;;;;;;0.10;0.10;;;;;;;7.08;80.37;100225.41;7368454;19;20085;-64
2024/02/07 00:43:48;;;;;;;0.00;0.00;;;;;;;6.93;80.83;100195.34;7367836;19;20772;-64
2024/02/07 00:46:13;;;;;;;0.03;0.03;;;;;;;7.04;80.49;100221.13;7366598;19;20100;-64
2024/02/07 00:48:42;;;;;;;0.10;0.10;;;;;;;6.97;80.63;100212.59;7367550;19;20818;-64
2024/02/07 00:51:08;;;;;;;0.10;0.10;;;;;;;7.02;80.62;100225.50;7372926;19;20089;-64
2024/02/07 00:53:33;;;;;;;0.00;0.00;;;;;;;7.02;80.71;100231.56;7367002;19;20054;-64
2024/02/07 00:55:59;;;;;;;0.10;0.10;;;;;;;6.85;81.04;100197.25;7367575;19;20675;-64
2024/02/07 00:58:24;;;;;;;0.10;0.10;;;;;;;7.02;80.71;100212.53;7367868;19;20022;-64
2024/02/07 01:00:51;;;;;;;0.10;0.10;;;;;;;7.02;80.63;100210.78;7366185;19;20002;-64
2024/02/07 01:03:16;;;;;;;0.10;0.10;;;;;;;6.87;81.00;100173.84;7367122;19;20497;-64
2024/02/07 01:05:42;;;;;;;0.10;0.10;;;;;;;6.98;80.67;100183.16;7364794;19;19999;-64
2024/02/07 01:08:08;;;;;;;0.10;0.10;;;;;;;7.00;80.53;100186.59;7367259;19;20021;-64
2024/02/07 01:10:33;;;;;;;0.10;0.10;;;;;;;7.03;80.89;100196.94;7367717;19;20007;-64
2024/02/07 01:12:59;;;;;;;0.10;0.10;;;;;;;7.03;80.92;100206.47;7368100;19;20018;-64
2024/02/07 01:15:24;;;;;;;0.00;0.00;;;;;;;7.03;80.51;100209.91;7370299;19;20025;-64
2024/02/07 01:17:49;;;;;;;0.10;0.10;;;;;;;7.00;80.48;100204.78;7367571;19;20439;-64
2024/02/07 01:20:15;;;;;;;0.00;0.00;;;;;;;7.00;80.59;100207.38;7365334;19;20090;-64
2024/02/07 01:22:40;;;;;;;0.08;0.08;;;;;;;7.03;80.56;100212.50;7365614;19;20017;-64
2024/02/07 01:25:06;;;;;;;0.10;0.10;;;;;;;7.05;80.77;100219.44;7366547;19;20007;-64
2024/02/07 01:27:31;;;;;;;0.10;0.10;;;;;;;7.02;80.54;100210.78;7367900;19;20062;-64
2024/02/07 01:30:01;;;;;;;0.10;0.10;;;;;;;7.02;80.39;100204.75;7370309;19;20018;-64
2024/02/07 01:32:26;;;;;;;0.10;0.10;;;;;;;6.89;80.67;100188.50;7373992;19;20010;-64
2024/02/07 01:34:52;;;;;;;0.10;0.10;;;;;;;6.83;80.42;100173.03;7366360;19;20025;-64
2024/02/07 01:37:18;;;;;;;0.10;0.10;;;;;;;7.01;80.69;100209.09;7366223;19;20040;-64
2024/02/07 01:39:44;;;;;;;0.00;0.00;;;;;;;7.02;80.58;100210.78;7366038;19;20006;-64
2024/02/07 01:42:09;;;;;;;0.10;0.10;;;;;;;6.90;80.70;100190.22;7366670;19;20636;-64
2024/02/07 01:44:35;;;;;;;0.00;0.00;;;;;;;7.00;80.39;100209.97;7366726;19;20002;-64
2024/02/07 01:47:13;;;;;;;0.10;0.10;;;;;;;7.00;80.46;100202.19;7363915;19;20013;-64
2024/02/07 01:49:45;;;;;;;0.10;0.10;;;;;;;7.01;80.41;100206.50;7365673;19;20010;-64
2024/02/07 01:52:12;;;;;;;0.00;0.00;;;;;;;6.93;80.16;100194.50;7365998;19;20014;-64
2024/02/07 01:54:40;;;;;;;0.10;0.10;;;;;;;6.99;80.44;100205.66;7365467;19;20088;-64
2024/02/07 01:57:06;;;;;;;0.10;0.10;;;;;;;6.93;80.57;100200.56;7364099;19;20662;-64
2024/02/07 01:59:33;;;;;;;0.03;0.03;;;;;;;6.86;80.47;100198.94;7365259;19;20010;-64
2024/02/07 02:01:58;;;;;;;0.08;0.08;;;;;;;6.92;80.51;100206.63;7366090;19;20512;-64
2024/02/07 02:04:24;;;;;;;0.00;0.00;;;;;;;6.48;80.33;100140.69;7365632;19;20364;-64
2024/02/07 02:06:52;;;;;;;0.03;0.03;;;;;;;6.91;80.30;100210.13;7365930;19;20015;-64
2024/02/07 02:09:17;;;;;;;0.10;0.10;;;;;;;6.84;80.17;100194.66;7366952;19;20022;-64
2024/02/07 02:11:47;;;;;;;0.10;0.10;;;;;;;6.68;80.14;100178.47;7366246;19;20010;-64
2024/02/07 02:14:13;;;;;;;0.00;0.00;;;;;;;6.62;80.03;100178.56;7364916;19;20010;-64
2024/02/07 02:16:38;;;;;;;0.10;0.10;;;;;;;6.65;80.05;100204.47;7365576;19;20013;-65
2024/02/07 02:19:04;;;;;;;0.10;0.10;;;;;;;6.63;80.23;100214.00;7365648;19;20011;-64
2024/02/07 02:21:35;;;;;;;0.10;0.10;;;;;;;6.60;79.73;100212.31;7375952;19;20027;-64
2024/02/07 02:24:15;;;;;;;0.10;0.10;;;;;;;6.60;79.80;100221.84;7376415;19;20013;-64
2024/02/07 02:27:10;;;;;;;0.10;0.10;;;;;;;6.47;79.31;100214.19;7370863;19;20015;-64
2024/02/07 02:29:42;;;;;;;0.00;0.00;;;;;;;6.45;79.69;100222.91;7371121;19;20496;-64
2024/02/07 02:32:09;;;;;;;0.10;0.10;;;;;;;6.21;79.73;100192.97;7377775;19;20010;-64
2024/02/07 02:34:37;;;;;;;0.00;0.00;;;;;;;6.18;79.81;100205.94;7372189;19;20037;-65
2024/02/07 02:37:03;;;;;;;0.10;0.10;;;;;;;6.23;79.71;100230.97;7376752;19;20113;-64
2024/02/07 02:39:29;;;;;;;0.00;0.00;;;;;;;6.17;79.55;100233.59;7372297;19;20482;-64
2024/02/07 02:41:55;;;;;;;0.08;0.08;;;;;;;5.96;79.47;100203.63;7371208;19;20031;-64
2024/02/07 02:44:23;;;;;;;0.10;0.10;;;;;;;5.70;79.94;100184.91;7370712;19;20019;-64
2024/02/07 02:46:49;;;;;;;;;;;;;;;6.04;79.25;100239.84;7371058;19;20033;-64
2024/02/07 02:49:14;;;;;;;0.10;0.10;;;;;;;5.80;79.47;100215.00;7371281;19;19926;-64
2024/02/07 02:51:40;;;;;;;0.00;0.00;;;;;;;5.77;79.72;100216.78;7372651;19;20676;-64
2024/02/07 02:54:06;;;;;;;0.10;0.10;;;;;;;5.77;79.60;100233.16;7376390;19;20013;-64
2024/02/07 02:56:31;;;;;;;0.10;0.10;;;;;;;5.76;79.61;100234.06;7377929;19;20031;-65
2024/02/07 02:58:57;;;;;;;0.00;0.00;;;;;;;5.71;79.76;100238.44;7366977;19;20002;-64
2024/02/07 03:01:23;;;;;;;0.05;0.05;;;;;;;5.47;79.85;100200.66;7368265;19;20021;-64
2024/02/07 03:03:55;;;;;;;0.10;0.10;;;;;;;5.59;80.23;100233.38;7372310;19;20006;-64
2024/02/07 03:06:32;;;;;;;0.00;0.00;;;;;;;5.42;79.65;100211.09;7374925;19;20014;-64
2024/02/07 03:09:19;;;;;;;0.00;0.00;;;;;;;5.39;79.85;100200.75;7378711;19;20027;-64
2024/02/07 03:11:44;;;;;;;;;;;;;;;5.50;79.33;100215.34;7372549;19;20729;-64
2024/02/07 03:14:10;;;;;;;0.10;0.10;;;;;;;5.39;79.70;100213.72;7371022;19;19915;-64
2024/02/07 03:16:35;;;;;;;0.00;0.00;;;;;;;5.23;80.04;100178.47;7369904;19;20015;-64
2024/02/07 03:19:01;;;;;;;0.10;0.10;;;;;;;5.21;79.99;100175.03;7370684;19;20011;-65
2024/02/07 03:21:26;;;;;;;0.10;0.10;;;;;;;5.31;79.85;100197.38;7369107;19;20014;-64
2024/02/07 03:23:55;;;;;;;0.00;0.00;;;;;;;5.28;80.48;100189.66;7370540;19;20506;-64
2024/02/07 03:26:23;;;;;;;0.10;0.10;;;;;;;5.25;80.39;100187.09;7369489;19;20035;-64
2024/02/07 03:28:51;;;;;;;0.10;0.10;;;;;;;5.01;80.35;100145.88;7371327;19;20080;-64
2024/02/07 03:31:18;;;;;;;0.00;0.00;;;;;;;5.08;80.25;100152.75;7364510;19;20018;-64
2024/02/07 03:33:43;;;;;;;0.10;0.10;;;;;;;5.18;80.29;100180.25;7367518;19;20015;-64
2024/02/07 03:36:10;;;;;;;0.10;0.10;;;;;;;5.03;80.76;100165.72;7366470;19;20017;-64
2024/02/07 03:38:36;;;;;;;0.00;0.00;;;;;;;5.13;80.26;100187.22;7371095;19;20018;-64
2024/02/07 03:41:01;;;;;;;0.10;0.10;;;;;;;5.02;80.46;100168.31;7366861;19;20014;-64
2024/02/07 03:43:27;;;;;;;0.08;0.08;;;;;;;5.08;80.09;100173.44;7372320;19;20017;-65
2024/02/07 03:45:52;;;;;;;0.10;0.10;;;;;;;5.00;80.48;100157.97;7371104;19;20003;-64
2024/02/07 03:48:19;;;;;;;0.00;0.00;;;;;;;4.89;80.27;100127.03;7362745;19;20494;-64
2024/02/07 03:50:48;;;;;;;0.10;0.10;;;;;;;5.05;80.61;100145.00;7368258;19;20005;-64
2024/02/07 03:53:14;;;;;;;0.10;0.10;;;;;;;4.92;80.32;100127.00;7369403;19;20018;-64
2024/02/07 03:55:39;;;;;;;0.10;0.10;;;;;;;4.98;80.62;100120.06;7369134;19;20018;-64
2024/02/07 03:58:05;;;;;;;0.10;0.10;;;;;;;5.02;80.42;100120.03;7367533;19;20859;-64
2024/02/07 04:00:30;;;;;;;0.10;0.10;;;;;;;4.91;80.88;100093.38;7369845;19;20006;-64
2024/02/07 04:02:57;;;;;;;0.10;0.10;;;;;;;4.90;80.70;100108.03;7369186;19;20011;-64
2024/02/07 04:05:23;;;;;;;0.00;0.00;;;;;;;4.81;80.72;100090.00;7366127;19;20508;-64
2024/02/07 04:07:50;;;;;;;0.10;0.10;;;;;;;5.06;80.99;100138.94;7368106;19;20470;-64
2024/02/07 04:10:18;;;;;;;0.10;0.10;;;;;;;5.05;80.94;100135.50;7368837;19;20849;-64
2024/02/07 05:15:35;;;;;;;0.10;0.10;;;;;;;4.73;81.07;100148.72;7368404;19;20029;-64
2024/02/07 05:18:00;;;;;;;0.00;0.00;;;;;;;4.58;80.80;100121.25;7365994;19;20010;-64
2024/02/07 05:20:26;;;;;;;0.10;0.10;;;;;;;4.61;80.90;100131.59;7371037;19;20482;-64
2024/02/07 05:22:51;;;;;;;0.10;0.10;;;;;;;4.75;81.21;100157.31;7371953;19;20007;-64
2024/02/07 05:25:17;;;;;;;0.10;0.10;;;;;;;4.65;80.73;100137.56;7365354;19;20017;-64
2024/02/07 05:27:43;;;;;;;0.00;0.00;;;;;;;4.84;80.94;100169.31;7366307;19;20003;-64
2024/02/07 05:30:09;;;;;;;0.03;0.03;;;;;;;4.79;81.24;100161.59;7365006;19;20116;-65
2024/02/07 05:32:34;;;;;;;0.10;0.10;;;;;;;4.66;80.82;100145.34;7366908;19;20082;-64
2024/02/07 05:34:59;;;;;;;0.00;0.00;;;;;;;4.79;81.11;100160.75;7366031;19;20003;-64
2024/02/07 05:37:25;;;;;;;0.10;0.10;;;;;;;4.87;81.06;100170.16;7365256;19;20609;-64
2024/02/07 05:39:51;;;;;;;0.10;0.10;;;;;;;4.89;81.13;100168.41;7369497;19;20003;-64
2024/02/07 05:42:16;;;;;;;0.10;0.10;;;;;;;4.87;81.17;100154.66;7372372;19;20506;-64
2024/02/07 05:44:42;;;;;;;0.10;0.10;;;;;;;4.92;81.17;100163.22;7373013;19;20751;-64
2024/02/07 05:47:07;;;;;;;0.00;0.00;;;;;;;4.86;80.85;100152.91;7367269;19;20632;-65
2024/02/07 05:49:33;;;;;;;0.10;0.10;;;;;;;4.88;80.79;100158.94;7365547;19;20003;-64
2024/02/07 05:51:58;;;;;;;0.10;0.10;;;;;;;4.92;80.94;100158.06;7366359;19;20048;-64
2024/02/07 05:54:25;;;;;;;0.00;0.00;;;;;;;4.86;80.91;100139.97;7364651;19;20694;-64
2024/02/07 05:56:51;;;;;;;0.00;0.00;;;;;;;4.97;81.07;100162.31;7362567;19;20010;-64
2024/02/07 05:59:17;;;;;;;0.10;0.10;;;;;;;4.90;80.76;100146.84;7364672;19;21106;-64
2024/02/07 06:01:44;;;;;;;0.10;0.10;;;;;;;5.01;80.89;100166.59;7365173;19;20021;-64
2024/02/07 06:04:09;;;;;;;0.00;0.00;;;;;;;4.91;81.08;100140.78;7367083;19;20061;-64
2024/02/07 06:06:36;;;;;;;0.10;0.10;;;;;;;5.02;80.63;100168.31;7363301;19;20146;-64
2024/02/07 06:09:01;;;;;;;0.10;0.10;;;;;;;4.87;80.67;100141.72;7364911;19;20441;-64
2024/02/07 06:11:32;;;;;;;0.10;0.10;;;;;;;5.02;80.63;100170.88;7365963;19;20015;-64
2024/02/07 06:14:05;;;;;;;0.03;0.03;;;;;;;5.03;80.95;100170.91;7362834;19;20574;-64
2024/02/07 06:16:30;;;;;;;0.10;0.10;;;;;;;4.91;80.56;100155.47;7366329;19;20022;-64
2024/02/07 06:18:56;;;;;;;0.00;0.00;;;;;;;5.04;80.65;100177.78;7366377;19;20010;-64
2024/02/07 06:21:22;;;;;;;0.00;0.00;;;;;;;4.88;80.57;100151.19;7363862;19;20052;-64
2024/02/07 06:23:47;;;;;;;0.08;0.08;;;;;;;5.05;80.55;100176.06;7364403;19;20021;-64
2024/02/07 06:26:14;;;;;;;0.00;0.00;;;;;;;5.05;80.85;100176.06;7364304;19;20011;-64
2024/02/07 06:28:40;;;;;;;0.00;0.00;;;;;;;4.92;80.70;100163.22;7365470;19;20088;-64
2024/02/07 06:31:05;;;;;;;0.08;0.08;;;;;;;4.72;80.57;100128.91;7363565;19;20014;-64
2024/02/07 06:33:31;;;;;;;0.10;0.10;;;;;;;5.02;80.81;100183.81;7363928;19;20050;-64
2024/02/07 06:35:56;;;;;;;0.10;0.10;;;;;;;4.99;80.61;100169.19;7366804;19;20307;-64
2024/02/07 06:38:22;;;;;;;0.10;0.10;;;;;;;4.87;80.83;100159.81;7363427;19;20358;-64
2024/02/07 06:40:47;;;;;;;0.08;0.08;;;;;;;4.86;80.53;100150.31;7364654;19;20013;-64
2024/02/07 06:43:12;;;;;;;0.10;0.10;;;;;;;4.92;80.54;100168.41;7362137;19;20007;-64
2024/02/07 06:45:38;;;;;;;0.10;0.10;;;;;;;5.02;80.85;100176.06;7362500;19;20044;-64
2024/02/07 06:48:04;;;;;;;0.00;0.00;;;;;;;4.88;80.83;100152.91;7364181;19;20014;-64
2024/02/07 06:50:29;;;;;;;0.10;0.10;;;;;;;5.02;80.67;100173.47;7365206;19;20090;-64
2024/02/07 06:52:54;;;;;;;0.05;0.05;;;;;;;4.94;80.69;100165.78;7363979;19;20066;-64
2024/02/07 06:55:20;;;;;;;0.00;0.00;;;;;;;4.87;80.53;100149.47;7363644;19;20738;-64
2024/02/07 06:57:45;;;;;;;0.00;0.00;;;;;;;4.82;80.63;100138.31;7361079;19;20403;-64
2024/02/07 07:00:12;;;;;;;0.10;0.10;;;;;;;5.06;80.75;100181.19;7363193;19;19998;-64
2024/02/07 07:02:38;;;;;;;0.03;0.03;;;;;;;5.00;80.64;100170.06;7362434;19;20018;-64
2024/02/07 07:05:03;;;;;;;0.10;0.10;;;;;;;5.05;80.62;100178.63;7359809;19;21756;-64
2024/02/07 07:07:29;;;;;;;0.08;0.08;;;;;;;4.94;80.62;100158.88;7363571;19;20030;-64
2024/02/07 07:09:54;;;;;;;0.10;0.10;;;;;;;5.05;80.66;100178.63;7371351;19;20047;-64
2024/02/07 07:12:19;;;;;;;0.03;0.03;;;;;;;5.00;80.71;100175.22;7375273;19;20033;-64
2024/02/07 07:14:45;;;;;;;0.00;0.00;;;;;;;5.07;80.82;100184.66;7368157;19;20006;-64
2024/02/07 07:17:11;;;;;;;0.00;0.00;;;;;;;5.02;80.69;100173.47;7368686;19;20021;-64
2024/02/07 07:19:36;;;;;;;0.00;0.00;;;;;;;4.91;80.50;100158.91;7369892;19;20002;-64
2024/02/07 07:22:02;;;;;;;0.00;0.00;;;;;;;5.06;80.34;100175.16;7368908;19;20018;-64
2024/02/07 07:24:27;;;;;;;0.10;0.10;;;;;;;5.05;80.58;100181.22;7370474;19;20027;-64
2024/02/07 07:26:53;;;;;;;0.10;0.10;;;;;;;5.07;80.79;100176.88;7366167;19;20018;-64
2024/02/07 07:29:18;;;;;;;0.00;0.00;;;;;;;4.98;80.52;100169.22;7369563;19;20007;-64
2024/02/07 07:31:44;;;;;;;0.00;0.00;;;;;;;5.07;80.51;100171.72;7364920;19;20046;-64
2024/02/07 07:34:10;;;;;;;0.00;0.00;;;;;;;5.06;80.58;100175.16;7368219;19;20019;-64
2024/02/07 07:36:35;;;;;;;0.10;0.10;;;;;;;5.03;80.43;100175.22;7370322;19;20018;-64
2024/02/07 07:39:01;;;;;;;0.10;0.10;;;;;;;4.92;80.53;100152.03;7376362;19;20018;-65
2024/02/07 07:41:26;;;;;;;0.05;0.05;;;;;;;5.01;80.73;100171.75;7367784;19;20652;-64
2024/02/07 07:43:52;;;;;;;0.10;0.10;;;;;;;4.93;80.36;100154.59;7369535;19;20010;-64
2024/02/07 07:46:18;;;;;;;0.03;0.03;;;;;;;5.05;80.63;100173.47;7366595;19;20007;-64
2024/02/07 07:48:43;;;;;;;0.10;0.10;;;;;;;5.06;80.70;100180.34;7370709;19;20018;-64
2024/02/07 07:51:10;;;;;;;0.00;0.00;;;;;;;5.00;80.61;100185.56;7367100;19;20018;-64
2024/02/07 07:53:35;;;;;;;0.10;0.10;;;;;;;4.90;80.61;100164.09;7375040;19;20018;-64
2024/02/07 07:56:01;;;;;;;0.00;0.00;;;;;;;5.03;80.32;100190.75;7369189;19;20026;-64
2024/02/07 07:58:26;;;;;;;0.10;0.10;;;;;;;4.84;80.60;100162.41;7366820;19;20018;-64
2024/02/07 08:00:52;;;;;;;0.00;0.00;;;;;;;4.79;80.63;100166.78;7372758;19;20910;-64
2024/02/07 08:03:17;;;;;;;0.10;0.10;;;;;;;5.02;80.48;100195.06;7369975;19;20014;-64
2024/02/07 08:05:42;;;;;;;0.00;0.00;;;;;;;4.99;80.34;100191.63;7367291;19;20027;-64
2024/02/07 08:08:08;;;;;;;0.10;0.10;;;;;;;5.04;80.78;100192.44;7369041;19;20006;-64
2024/02/07 08:10:35;;;;;;;0.08;0.08;;;;;;;5.02;80.43;100197.66;7369056;19;20122;-64
2024/02/07 08:13:01;;;;;;;0.10;0.10;;;;;;;5.01;80.53;100200.22;7368562;19;20070;-64
2024/02/07 08:15:27;;;;;;;0.00;0.00;;;;;;;4.80;80.35;100168.47;7368085;19;20086;-64
2024/02/07 08:17:52;;;;;;;0.00;0.00;;;;;;;4.62;80.09;100142.78;7367978;19;20442;-64
2024/02/07 08:20:22;;;;;;;0.00;0.00;;;;;;;4.77;80.10;100168.53;7365440;19;20839;-64
2024/02/07 08:22:49;;;;;;;0.00;0.00;;;;;;;4.89;79.92;100193.44;7366653;19;20082;-64
2024/02/07 08:25:15;;;;;;;0.03;0.03;;;;;;;4.81;80.19;100185.72;7369063;19;20006;-65
2024/02/07 08:27:40;;;;;;;0.00;0.00;;;;;;;4.76;79.99;100181.44;7367628;19;20030;-64
2024/02/07 08:30:06;;;;;;;0.10;0.10;;;;;;;4.67;79.77;100178.06;7366986;19;20022;-64
2024/02/07 08:32:32;;;;;;;0.08;0.08;;;;;;;4.71;80.12;100178.88;7367696;19;20010;-64
2024/02/07 08:34:58;;;;;;;0.10;0.10;;;;;;;4.38;80.13;100129.13;7367275;19;20024;-64
2024/02/07 08:37:26;;;;;;;0.10;0.10;;;;;;;4.70;80.30;100192.69;7367408;19;20365;-64
2024/02/07 08:39:55;;;;;;;0.00;0.00;;;;;;;4.66;80.21;100196.16;7368515;19;20014;-64
2024/02/07 08:42:20;;;;;;;0.10;0.10;;;;;;;4.66;80.52;100191.00;7367154;19;19999;-64
2024/02/07 08:44:46;;;;;;;0.00;0.00;;;;;;;4.59;80.40;100184.16;7367910;19;20712;-64
2024/02/07 08:47:11;;;;;;;0.00;0.00;;;;;;;4.63;80.29;100196.22;7364352;19;20021;-64
2024/02/07 08:49:37;;;;;;;0.10;0.10;;;;;;;4.47;80.19;100169.59;7364722;19;20011;-65
2024/02/07 08:52:02;;;;;;;0.00;0.00;;;;;;;4.66;80.05;100201.34;7366674;19;20716;-64
2024/02/07 08:54:28;;;;;;;0.00;0.00;;;;;;;4.66;80.24;100191.00;7367110;19;20010;-64
2024/02/07 08:56:53;;;;;;;0.00;0.00;;;;;;;4.59;80.50;100181.56;7366632;19;20007;-64
2024/02/07 08:59:19;;;;;;;0.00;0.00;;;;;;;4.65;80.29;100189.28;7367416;19;20010;-64
2024/02/07 09:01:44;;;;;;;0.10;0.10;;;;;;;4.66;80.50;100197.06;7364554;19;20010;-64
2024/02/07 09:04:09;;;;;;;0.10;0.10;;;;;;;4.62;80.01;100191.91;7365639;19;20116;-64
2024/02/07 09:06:35;;;;;;;0.10;0.10;;;;;;;4.63;80.50;100188.44;7365556;19;20007;-64
2024/02/07 09:09:02;;;;;;;0.00;0.00;;;;;;;4.71;80.09;100199.59;7368717;19;20018;-64
2024/02/07 09:11:28;;;;;;;0.00;0.00;;;;;;;4.59;80.47;100176.41;7366108;19;20105;-64
2024/02/07 09:13:54;;;;;;;0.00;0.00;;;;;;;4.78;80.36;100205.59;7366603;19;20089;-64
2024/02/07 09:16:19;;;;;;;0.00;0.00;;;;;;;4.83;80.27;100202.09;7365427;19;20105;-64
2024/02/07 09:18:45;;;;;;;0.10;0.10;;;;;;;4.92;80.17;100204.63;7367130;19;20533;-64
2024/02/07 09:21:10;;;;;;;0.00;0.00;;;;;;;4.98;80.23;100198.53;7366293;19;20490;-64
2024/02/07 09:23:35;;;;;;;0.00;0.00;;;;;;;4.89;80.20;100176.19;7365613;19;20935;-64
2024/02/07 09:26:05;;;;;;;0.10;0.10;;;;;;;5.14;80.33;100199.28;7367848;19;20014;-64
2024/02/07 09:28:30;;;;;;;0.00;0.00;;;;;;;5.09;80.20;100190.69;7366594;19;20010;-64
2024/02/07 09:30:56;;;;;;;0.00;0.00;;;;;;;5.28;80.05;100206.91;7361706;19;20451;-64
2024/02/07 09:33:21;;;;;;;0.00;0.00;;;;;;;5.27;79.92;100200.88;7365637;19;20010;-64
2024/02/07 09:35:47;;;;;;;0.10;0.10;;;;;;;5.43;79.69;100207.63;7364076;19;20014;-64
2024/02/07 09:38:12;;;;;;;0.00;0.00;;;;;;;5.50;79.56;100208.41;7363658;19;20038;-64
2024/02/07 09:40:38;;;;;;;0.10;0.10;;;;;;;5.62;79.73;100210.03;7364162;19;20547;-64
2024/02/07 09:43:04;;;;;;;0.10;0.10;;;;;;;5.63;79.46;100199.66;7365757;19;20017;-64
2024/02/07 09:45:34;;;;;;;0.00;0.00;;;;;;;5.80;79.78;100198.63;7361248;19;20011;-64
2024/02/07 09:48:21;;;;;;;0.00;0.00;;;;;;;6.01;79.52;100210.50;7362303;19;20026;-64
2024/02/07 09:50:48;;;;;;;0.00;0.00;;;;;;;5.90;79.32;100179.50;7366361;19;20014;-64
2024/02/07 09:53:14;;;;;;;0.00;0.00;;;;;;;6.27;78.94;100212.75;7365138;19;20002;-64
2024/02/07 09:55:40;;;;;;;0.00;0.00;;;;;;;6.40;78.68;100209.13;7364968;19;20479;-64
2024/02/07 09:58:08;;;;;;;0.00;0.00;;;;;;;6.52;78.40;100197.72;7368205;19;20013;-64
2024/02/07 10:00:35;;;;;;;0.10;0.10;;;;;;;6.79;78.40;100212.88;7371437;19;20039;-64
2024/02/07 10:03:05;;;;;;;0.05;0.05;;;;;;;6.99;77.99;100213.47;7361099;19;20111;-64
2024/02/07 10:05:31;;;;;;;0.00;0.00;;;;;;;7.18;77.31;100211.41;7364955;19;19999;-64
2024/02/07 10:07:56;;;;;;;0.00;0.00;;;;;;;7.37;77.14;100216.28;7364952;19;20045;-64
2024/02/07 10:10:22;;;;;;;0.05;0.05;;;;;;;7.56;76.92;100222.03;7364281;19;20506;-64
2024/02/07 10:12:48;;;;;;;0.05;0.05;;;;;;;7.71;76.30;100219.16;7362059;19;20043;-64
2024/02/07 10:15:14;;;;;;;0.10;0.10;;;;;;;7.80;76.23;100206.81;7364417;19;20360;-64
2024/02/07 10:17:39;;;;;;;0.08;0.08;;;;;;;7.95;76.25;100205.66;7363060;19;20015;-64
2024/02/07 10:20:09;;;;;;;0.10;0.10;;;;;;;8.18;75.95;100206.94;7365137;19;20013;-64
2024/02/07 10:22:39;;;;;;;0.10;0.10;;;;;;;8.27;75.95;100196.34;7365039;19;20865;-64
2024/02/07 10:25:10;;;;;;;0.10;0.10;;;;;;;8.44;75.66;100209.88;7364679;19;20098;-64
2024/02/07 10:27:36;;;;;;;0.00;0.00;;;;;;;8.50;75.00;100204.53;7365424;19;20021;-64
2024/02/07 10:30:04;;;;;;;0.10;0.10;;;;;;;8.58;75.13;100197.41;7361941;19;20103;-64
2024/02/07 10:32:29;;;;;;;0.10;0.10;;;;;;;8.52;75.14;100181.94;7361087;19;20014;-64
2024/02/07 10:34:55;;;;;;;0.10;0.10;;;;;;;8.71;74.99;100197.97;7362175;19;20379;-64
2024/02/07 10:37:20;;;;;;;0.10;0.10;;;;;;;8.82;75.04;100200.34;7363531;19;20010;-64
2024/02/07 10:39:47;;;;;;;0.10;0.10;;;;;;;8.94;75.08;100209.63;7364093;19;20015;-64
2024/02/07 10:42:14;;;;;;;0.10;0.10;;;;;;;9.07;74.73;100209.28;7366397;19;20025;-64
2024/02/07 10:44:40;;;;;;;0.00;0.00;;;;;;;9.16;74.39;100187.34;7370649;19;20015;-64
2024/02/07 10:47:09;;;;;;;0.00;0.00;;;;;;;9.31;74.68;100189.56;7374940;19;20062;-64
2024/02/07 10:49:35;;;;;;;0.00;0.00;;;;;;;9.41;74.52;100184.97;7371392;19;20006;-64
2024/02/07 10:52:01;;;;;;;0.10;0.10;;;;;;;9.59;74.41;100187.09;7373901;19;20018;-64
2024/02/07 10:54:27;;;;;;;0.10;0.10;;;;;;;9.77;74.02;100174.44;7373919;19;20070;-64
2024/02/07 10:56:56;;;;;;;0.10;0.10;;;;;;;10.03;73.60;100169.34;7373107;19;20086;-64
2024/02/07 10:59:22;;;;;;;0.13;0.13;;;;;;;10.27;73.31;100167.81;7370397;19;20035;-64
2024/02/07 11:01:49;;;;;;;0.10;0.10;;;;;;;10.54;72.73;100166.13;7371772;19;20014;-64
2024/02/07 11:04:14;;;;;;;0.10;0.10;;;;;;;10.83;72.38;100161.72;7370491;19;20033;-64
2024/02/07 11:06:42;;;;;;;0.10;0.10;;;;;;;11.18;71.65;100160.56;7369026;19;20014;-64
2024/02/07 11:09:09;;;;;;;0.10;0.10;;;;;;;11.48;71.09;100166.50;7376782;19;20442;-64
2024/02/07 11:11:35;;;;;;;0.10;0.10;;;;;;;11.77;70.53;100170.69;7372483;19;20010;-64
2024/02/07 11:14:02;;;;;;;0.10;0.10;;;;;;;12.06;69.87;100164.41;7368303;19;20361;-64
2024/02/07 11:16:28;;;;;;;0.10;0.10;;;;;;;12.28;69.45;100169.72;7377612;19;20835;-64
2024/02/07 11:18:53;;;;;;;0.10;0.10;;;;;;;12.50;69.25;100177.59;7370939;19;20074;-64
2024/02/07 11:21:27;;;;;;;0.20;0.20;;;;;;;12.75;69.36;100176.63;7371234;19;20106;-64
2024/02/07 11:23:55;;;;;;;0.10;0.10;;;;;;;12.85;68.32;100176.19;7371039;19;20010;-64
2024/02/07 11:26:21;;;;;;;0.10;0.10;;;;;;;12.95;68.44;100172.28;7370309;19;20006;-64
2024/02/07 11:28:47;;;;;;;0.10;0.10;;;;;;;12.96;68.11;100147.78;7371408;19;20655;-64
2024/02/07 11:31:15;;;;;;;0.10;0.10;;;;;;;13.18;67.99;100154.75;7369499;19;20035;-64
2024/02/07 11:33:43;;;;;;;0.10;0.10;;;;;;;13.20;67.82;100140.66;7369818;19;20035;-64
2024/02/07 11:36:16;;;;;;;;;;;;;;;13.42;70.33;100137.13;7370182;19;20776;-64
2024/02/07 11:38:47;;;;;;;0.10;0.10;;;;;;;13.37;68.17;100144.34;7369257;19;19994;-64
2024/02/07 11:41:16;;;;;;;0.10;0.10;;;;;;;13.41;68.68;100143.31;7369975;19;20014;-64
2024/02/07 11:43:43;;;;;;;0.10;0.10;;;;;;;13.42;67.95;100145.84;7369435;19;20021;-64
2024/02/07 11:46:09;;;;;;;0.10;0.10;;;;;;;13.51;68.10;100139.38;7367860;19;20104;-64
2024/02/07 11:48:42;;;;;;;0.10;0.10;;;;;;;13.60;68.78;100133.72;7374767;19;20027;-64
2024/02/07 11:51:11;;;;;;;0.10;0.10;;;;;;;13.62;68.31;100141.50;7376466;19;20376;-64
2024/02/07 11:53:41;;;;;;;0.10;0.10;;;;;;;13.79;69.10;100146.00;7368120;19;20021;-64
2024/02/07 11:56:11;;;;;;;0.10;0.10;;;;;;;13.90;69.14;100151.66;7367258;19;20019;-64
2024/02/07 11:58:37;;;;;;;0.10;0.10;;;;;;;13.95;68.09;100145.25;7366875;19;20090;-64
2024/02/07 12:01:06;;;;;;;0.10;0.10;;;;;;;13.98;67.98;100136.38;7367609;19;20010;-64
2024/02/07 12:03:31;;;;;;;0.20;0.20;;;;;;;14.24;67.85;100154.44;7368810;19;20395;-63
2024/02/07 12:05:57;;;;;;;0.10;0.10;;;;;;;14.42;68.15;100159.75;7368165;19;20018;-64
2024/02/07 12:08:23;;;;;;;0.10;0.10;;;;;;;14.58;67.82;100155.47;7367501;19;20012;-64
2024/02/07 12:10:50;;;;;;;0.10;0.10;;;;;;;14.75;67.58;100152.91;7369423;19;20017;-64
2024/02/07 12:13:16;;;;;;;0.10;0.10;;;;;;;14.76;67.56;100130.94;7368837;19;20674;-64
2024/02/07 12:15:42;;;;;;;0.20;0.20;;;;;;;15.04;67.20;100143.56;7368547;19;20006;-64
2024/02/07 12:18:08;;;;;;;0.10;0.10;;;;;;;15.23;67.07;100150.53;7372253;19;20013;-64
2024/02/07 12:20:33;;;;;;;0.10;0.10;;;;;;;15.35;66.75;100157.78;7375759;19;20017;-64
2024/02/07 12:23:00;;;;;;;0.10;0.10;;;;;;;15.48;66.90;100150.13;7375901;19;20283;-64
2024/02/07 12:25:26;;;;;;;0.10;0.10;;;;;;;15.56;66.85;100156.72;7367827;19;20045;-64
2024/02/07 12:27:51;;;;;;;0.10;0.10;;;;;;;15.65;66.90;100160.66;7370191;19;20049;-64
2024/02/07 12:30:17;;;;;;;0.10;0.10;;;;;;;15.72;66.81;100146.25;7367576;19;20636;-64
2024/02/07 12:32:43;;;;;;;0.10;0.10;;;;;;;15.86;66.61;100147.28;7367932;19;20010;-64
2024/02/07 12:35:09;;;;;;;0.10;0.10;;;;;;;15.95;67.10;100152.91;7367393;19;20007;-64